sensor_id;sensor_type;location;lat;lon;timestamp;P1;durP1;ratioP1;P2;durP2;ratioP2
52414;SDS011;38340;52.964;6.086;2023-09-08T00:00:41;10.60;;;9.35;;
52414;SDS011;38340;52.964;6.086;2023-09-08T00:03:06;13.73;;;10.93;;
52414;SDS011;38340;52.964;6.086;2023-09-08T00:05:32;14.40;;;10.80;;
52414;SDS011;38340;52.964;6.086;2023-09-08T00:07:58;12.35;;;9.90;;
52414;SDS011;38340;52.964;6.086;2023-09-08T00:10:23;12.25;;;11.00;;
52414;SDS011;38340;52.964;6.086;2023-09-08T00:12:49;14.85;;;10.45;;
52414;SDS011;38340;52.964;6.086;2023-09-08T00:15:15;11.90;;;10.63;;
52414;SDS011;38340;52.964;6.086;2023-09-08T00:17:40;14.32;;;11.60;;
52414;SDS011;38340;52.964;6.086;2023-09-08T00:20:06;16.55;;;11.23;;
52414;SDS011;38340;52.964;6.086;2023-09-08T00:22:36;14.35;;;10.88;;
52414;SDS011;38340;52.964;6.086;2023-09-08T00:25:03;11.07;;;9.82;;
52414;SDS011;38340;52.964;6.086;2023-09-08T00:27:29;13.15;;;11.45;;
52414;SDS011;38340;52.964;6.086;2023-09-08T00:29:56;14.07;;;11.23;;
52414;SDS011;38340;52.964;6.086;2023-09-08T00:32:21;12.98;;;11.57;;
52414;SDS011;38340;52.964;6.086;2023-09-08T00:34:47;17.73;;;11.98;;
52414;SDS011;38340;52.964;6.086;2023-09-08T00:37:13;15.55;;;10.93;;
52414;SDS011;38340;52.964;6.086;2023-09-08T00:39:39;13.00;;;11.48;;
52414;SDS011;38340;52.964;6.086;2023-09-08T00:42:04;12.05;;;10.32;;
52414;SDS011;38340;52.964;6.086;2023-09-08T00:44:32;14.93;;;12.90;;
52414;SDS011;38340;52.964;6.086;2023-09-08T00:46:57;13.43;;;11.57;;
52414;SDS011;38340;52.964;6.086;2023-09-08T00:49:23;14.48;;;12.15;;
52414;SDS011;38340;52.964;6.086;2023-09-08T00:51:49;14.13;;;11.90;;
52414;SDS011;38340;52.964;6.086;2023-09-08T00:54:16;16.80;;;12.63;;
52414;SDS011;38340;52.964;6.086;2023-09-08T00:56:42;14.02;;;12.52;;
52414;SDS011;38340;52.964;6.086;2023-09-08T00:59:09;14.77;;;11.50;;
52414;SDS011;38340;52.964;6.086;2023-09-08T01:01:35;12.57;;;10.93;;
52414;SDS011;38340;52.964;6.086;2023-09-08T01:04:01;13.43;;;11.30;;
52414;SDS011;38340;52.964;6.086;2023-09-08T01:06:27;16.00;;;11.10;;
52414;SDS011;38340;52.964;6.086;2023-09-08T01:08:54;14.13;;;11.73;;
52414;SDS011;38340;52.964;6.086;2023-09-08T01:11:20;14.45;;;11.90;;
52414;SDS011;38340;52.964;6.086;2023-09-08T01:13:47;14.10;;;12.07;;
52414;SDS011;38340;52.964;6.086;2023-09-08T01:16:12;14.40;;;12.07;;
52414;SDS011;38340;52.964;6.086;2023-09-08T01:18:38;14.43;;;12.52;;
52414;SDS011;38340;52.964;6.086;2023-09-08T01:21:19;16.63;;;12.73;;
52414;SDS011;38340;52.964;6.086;2023-09-08T01:26:58;14.20;;;12.02;;
52414;SDS011;38340;52.964;6.086;2023-09-08T01:29:24;12.48;;;11.18;;
52414;SDS011;38340;52.964;6.086;2023-09-08T01:31:51;13.63;;;11.55;;
52414;SDS011;38340;52.964;6.086;2023-09-08T01:34:17;16.08;;;12.32;;
52414;SDS011;38340;52.964;6.086;2023-09-08T01:36:44;13.77;;;12.25;;
52414;SDS011;38340;52.964;6.086;2023-09-08T01:39:10;12.70;;;11.43;;
52414;SDS011;38340;52.964;6.086;2023-09-08T01:41:36;13.82;;;11.52;;
52414;SDS011;38340;52.964;6.086;2023-09-08T01:44:02;12.60;;;10.90;;
52414;SDS011;38340;52.964;6.086;2023-09-08T01:46:33;13.90;;;11.43;;
52414;SDS011;38340;52.964;6.086;2023-09-08T01:48:59;13.15;;;11.75;;
52414;SDS011;38340;52.964;6.086;2023-09-08T01:51:25;12.82;;;11.52;;
52414;SDS011;38340;52.964;6.086;2023-09-08T01:53:50;15.90;;;12.93;;
52414;SDS011;38340;52.964;6.086;2023-09-08T01:56:16;13.80;;;12.07;;
52414;SDS011;38340;52.964;6.086;2023-09-08T01:58:42;15.27;;;12.32;;
52414;SDS011;38340;52.964;6.086;2023-09-08T02:01:07;13.40;;;11.98;;
52414;SDS011;38340;52.964;6.086;2023-09-08T02:03:33;13.55;;;11.93;;
52414;SDS011;38340;52.964;6.086;2023-09-08T02:05:59;13.65;;;11.90;;
52414;SDS011;38340;52.964;6.086;2023-09-08T02:08:25;17.77;;;13.18;;
52414;SDS011;38340;52.964;6.086;2023-09-08T02:10:51;14.80;;;11.80;;
52414;SDS011;38340;52.964;6.086;2023-09-08T02:13:16;15.63;;;10.73;;
52414;SDS011;38340;52.964;6.086;2023-09-08T02:15:42;18.88;;;12.48;;
52414;SDS011;38340;52.964;6.086;2023-09-08T02:18:08;17.52;;;12.07;;
52414;SDS011;38340;52.964;6.086;2023-09-08T02:20:33;14.30;;;12.00;;
52414;SDS011;38340;52.964;6.086;2023-09-08T02:23:03;21.17;;;12.27;;
52414;SDS011;38340;52.964;6.086;2023-09-08T02:25:30;13.75;;;11.20;;
52414;SDS011;38340;52.964;6.086;2023-09-08T02:27:55;13.52;;;11.98;;
52414;SDS011;38340;52.964;6.086;2023-09-08T02:30:21;16.90;;;12.30;;
52414;SDS011;38340;52.964;6.086;2023-09-08T02:32:47;14.60;;;12.88;;
52414;SDS011;38340;52.964;6.086;2023-09-08T02:35:12;14.73;;;12.43;;
52414;SDS011;38340;52.964;6.086;2023-09-08T02:37:38;15.07;;;11.75;;
52414;SDS011;38340;52.964;6.086;2023-09-08T02:40:04;14.00;;;12.55;;
52414;SDS011;38340;52.964;6.086;2023-09-08T02:42:31;17.48;;;12.68;;
52414;SDS011;38340;52.964;6.086;2023-09-08T02:44:57;15.82;;;12.82;;
52414;SDS011;38340;52.964;6.086;2023-09-08T02:47:22;18.40;;;13.32;;
52414;SDS011;38340;52.964;6.086;2023-09-08T02:49:48;14.40;;;12.65;;
52414;SDS011;38340;52.964;6.086;2023-09-08T02:52:14;18.27;;;13.55;;
52414;SDS011;38340;52.964;6.086;2023-09-08T02:54:39;15.02;;;12.70;;
52414;SDS011;38340;52.964;6.086;2023-09-08T02:57:05;15.15;;;13.00;;
52414;SDS011;38340;52.964;6.086;2023-09-08T02:59:31;17.25;;;12.05;;
52414;SDS011;38340;52.964;6.086;2023-09-08T03:01:57;15.20;;;12.60;;
52414;SDS011;38340;52.964;6.086;2023-09-08T03:04:24;23.45;;;15.23;;
52414;SDS011;38340;52.964;6.086;2023-09-08T03:06:49;18.35;;;13.70;;
52414;SDS011;38340;52.964;6.086;2023-09-08T03:09:15;16.00;;;13.70;;
52414;SDS011;38340;52.964;6.086;2023-09-08T03:11:41;15.20;;;13.60;;
52414;SDS011;38340;52.964;6.086;2023-09-08T03:14:06;16.88;;;12.90;;
52414;SDS011;38340;52.964;6.086;2023-09-08T03:16:32;19.08;;;14.40;;
52414;SDS011;38340;52.964;6.086;2023-09-08T03:18:57;16.75;;;14.13;;
52414;SDS011;38340;52.964;6.086;2023-09-08T03:21:23;15.55;;;12.98;;
52414;SDS011;38340;52.964;6.086;2023-09-08T03:23:49;17.55;;;15.38;;
52414;SDS011;38340;52.964;6.086;2023-09-08T03:26:15;15.77;;;14.13;;
52414;SDS011;38340;52.964;6.086;2023-09-08T03:28:41;18.17;;;13.65;;
52414;SDS011;38340;52.964;6.086;2023-09-08T03:31:07;15.45;;;13.85;;
52414;SDS011;38340;52.964;6.086;2023-09-08T03:33:33;16.95;;;14.55;;
52414;SDS011;38340;52.964;6.086;2023-09-08T03:35:59;17.23;;;13.45;;
52414;SDS011;38340;52.964;6.086;2023-09-08T03:38:25;17.42;;;15.30;;
52414;SDS011;38340;52.964;6.086;2023-09-08T03:40:50;18.58;;;14.73;;
52414;SDS011;38340;52.964;6.086;2023-09-08T03:43:16;18.02;;;15.60;;
52414;SDS011;38340;52.964;6.086;2023-09-08T03:45:42;16.77;;;14.95;;
52414;SDS011;38340;52.964;6.086;2023-09-08T03:48:07;17.13;;;14.95;;
52414;SDS011;38340;52.964;6.086;2023-09-08T03:50:34;16.42;;;14.32;;
52414;SDS011;38340;52.964;6.086;2023-09-08T03:52:59;17.10;;;15.05;;
52414;SDS011;38340;52.964;6.086;2023-09-08T03:55:26;15.52;;;13.82;;
52414;SDS011;38340;52.964;6.086;2023-09-08T03:57:52;17.13;;;15.05;;
52414;SDS011;38340;52.964;6.086;2023-09-08T04:00:17;16.42;;;14.38;;
52414;SDS011;38340;52.964;6.086;2023-09-08T04:02:46;18.25;;;14.40;;
52414;SDS011;38340;52.964;6.086;2023-09-08T04:05:12;17.52;;;14.35;;
52414;SDS011;38340;52.964;6.086;2023-09-08T04:07:38;14.18;;;12.55;;
52414;SDS011;38340;52.964;6.086;2023-09-08T04:10:04;16.33;;;13.75;;
52414;SDS011;38340;52.964;6.086;2023-09-08T04:12:30;17.42;;;13.95;;
52414;SDS011;38340;52.964;6.086;2023-09-08T04:14:56;15.68;;;13.80;;
52414;SDS011;38340;52.964;6.086;2023-09-08T04:17:21;16.30;;;14.57;;
52414;SDS011;38340;52.964;6.086;2023-09-08T04:19:47;15.90;;;13.73;;
52414;SDS011;38340;52.964;6.086;2023-09-08T04:22:13;17.95;;;14.23;;
52414;SDS011;38340;52.964;6.086;2023-09-08T04:24:38;17.20;;;13.88;;
52414;SDS011;38340;52.964;6.086;2023-09-08T04:27:04;16.42;;;14.70;;
52414;SDS011;38340;52.964;6.086;2023-09-08T04:29:30;16.98;;;14.15;;
52414;SDS011;38340;52.964;6.086;2023-09-08T04:31:55;16.90;;;15.07;;
52414;SDS011;38340;52.964;6.086;2023-09-08T04:34:21;17.83;;;15.50;;
52414;SDS011;38340;52.964;6.086;2023-09-08T04:36:47;17.08;;;15.35;;
52414;SDS011;38340;52.964;6.086;2023-09-08T04:39:12;16.85;;;14.95;;
52414;SDS011;38340;52.964;6.086;2023-09-08T04:41:40;19.05;;;15.43;;
52414;SDS011;38340;52.964;6.086;2023-09-08T04:44:05;19.58;;;15.50;;
52414;SDS011;38340;52.964;6.086;2023-09-08T04:46:31;22.02;;;15.95;;
52414;SDS011;38340;52.964;6.086;2023-09-08T04:48:57;18.20;;;16.13;;
52414;SDS011;38340;52.964;6.086;2023-09-08T04:51:22;20.50;;;16.92;;
52414;SDS011;38340;52.964;6.086;2023-09-08T04:53:48;18.23;;;16.08;;
52414;SDS011;38340;52.964;6.086;2023-09-08T04:56:14;17.25;;;15.25;;
52414;SDS011;38340;52.964;6.086;2023-09-08T04:58:40;19.52;;;16.35;;
52414;SDS011;38340;52.964;6.086;2023-09-08T05:01:05;19.17;;;17.08;;
52414;SDS011;38340;52.964;6.086;2023-09-08T05:03:31;18.42;;;16.27;;
52414;SDS011;38340;52.964;6.086;2023-09-08T05:05:57;17.92;;;16.02;;
52414;SDS011;38340;52.964;6.086;2023-09-08T05:08:22;19.88;;;16.17;;
52414;SDS011;38340;52.964;6.086;2023-09-08T05:10:48;18.35;;;15.60;;
52414;SDS011;38340;52.964;6.086;2023-09-08T05:13:16;18.85;;;15.32;;
52414;SDS011;38340;52.964;6.086;2023-09-08T05:15:42;15.73;;;14.00;;
52414;SDS011;38340;52.964;6.086;2023-09-08T05:18:09;18.05;;;14.43;;
52414;SDS011;38340;52.964;6.086;2023-09-08T05:20:34;21.10;;;15.55;;
52414;SDS011;38340;52.964;6.086;2023-09-08T05:23:00;17.25;;;15.30;;
52414;SDS011;38340;52.964;6.086;2023-09-08T05:25:26;16.00;;;13.52;;
52414;SDS011;38340;52.964;6.086;2023-09-08T05:27:52;20.02;;;14.57;;
52414;SDS011;38340;52.964;6.086;2023-09-08T05:30:17;17.35;;;15.05;;
52414;SDS011;38340;52.964;6.086;2023-09-08T05:32:43;19.63;;;15.07;;
52414;SDS011;38340;52.964;6.086;2023-09-08T05:35:09;18.63;;;15.25;;
52414;SDS011;38340;52.964;6.086;2023-09-08T05:37:35;18.23;;;13.98;;
52414;SDS011;38340;52.964;6.086;2023-09-08T05:40:00;17.90;;;14.85;;
52414;SDS011;38340;52.964;6.086;2023-09-08T05:42:26;17.30;;;14.18;;
52414;SDS011;38340;52.964;6.086;2023-09-08T05:44:52;18.02;;;13.70;;
52414;SDS011;38340;52.964;6.086;2023-09-08T05:47:19;19.90;;;14.27;;
52414;SDS011;38340;52.964;6.086;2023-09-08T05:49:45;18.45;;;14.48;;
52414;SDS011;38340;52.964;6.086;2023-09-08T05:52:11;17.98;;;14.55;;
52414;SDS011;38340;52.964;6.086;2023-09-08T05:54:36;17.40;;;14.30;;
52414;SDS011;38340;52.964;6.086;2023-09-08T05:57:02;17.70;;;14.57;;
52414;SDS011;38340;52.964;6.086;2023-09-08T05:59:28;17.65;;;14.75;;
52414;SDS011;38340;52.964;6.086;2023-09-08T06:01:54;16.98;;;14.07;;
52414;SDS011;38340;52.964;6.086;2023-09-08T06:04:19;17.92;;;14.35;;
52414;SDS011;38340;52.964;6.086;2023-09-08T06:06:45;17.55;;;14.48;;
52414;SDS011;38340;52.964;6.086;2023-09-08T06:09:11;16.35;;;13.95;;
52414;SDS011;38340;52.964;6.086;2023-09-08T06:11:37;17.98;;;15.18;;
52414;SDS011;38340;52.964;6.086;2023-09-08T06:14:03;17.05;;;13.00;;
52414;SDS011;38340;52.964;6.086;2023-09-08T06:16:29;19.33;;;13.77;;
52414;SDS011;38340;52.964;6.086;2023-09-08T06:18:54;20.50;;;13.60;;
52414;SDS011;38340;52.964;6.086;2023-09-08T06:21:20;18.70;;;14.75;;
52414;SDS011;38340;52.964;6.086;2023-09-08T06:23:46;16.70;;;13.30;;
52414;SDS011;38340;52.964;6.086;2023-09-08T06:26:12;16.38;;;13.57;;
52414;SDS011;38340;52.964;6.086;2023-09-08T06:28:38;16.60;;;13.18;;
52414;SDS011;38340;52.964;6.086;2023-09-08T06:31:06;17.20;;;12.82;;
52414;SDS011;38340;52.964;6.086;2023-09-08T06:33:32;15.23;;;12.65;;
52414;SDS011;38340;52.964;6.086;2023-09-08T06:35:58;19.20;;;13.40;;
52414;SDS011;38340;52.964;6.086;2023-09-08T06:38:23;15.25;;;13.00;;
52414;SDS011;38340;52.964;6.086;2023-09-08T06:40:49;16.55;;;12.48;;
52414;SDS011;38340;52.964;6.086;2023-09-08T06:43:17;17.17;;;13.30;;
52414;SDS011;38340;52.964;6.086;2023-09-08T06:45:46;14.10;;;11.55;;
52414;SDS011;38340;52.964;6.086;2023-09-08T06:48:14;15.43;;;11.82;;
52414;SDS011;38340;52.964;6.086;2023-09-08T06:50:40;13.25;;;11.30;;
52414;SDS011;38340;52.964;6.086;2023-09-08T06:53:05;14.93;;;11.20;;
52414;SDS011;38340;52.964;6.086;2023-09-08T06:55:31;15.38;;;12.32;;
52414;SDS011;38340;52.964;6.086;2023-09-08T06:57:57;16.35;;;12.60;;
52414;SDS011;38340;52.964;6.086;2023-09-08T07:00:23;18.67;;;12.50;;
52414;SDS011;38340;52.964;6.086;2023-09-08T07:02:48;19.65;;;12.48;;
52414;SDS011;38340;52.964;6.086;2023-09-08T07:05:17;15.23;;;11.63;;
52414;SDS011;38340;52.964;6.086;2023-09-08T07:07:42;17.08;;;11.43;;
52414;SDS011;38340;52.964;6.086;2023-09-08T07:10:08;13.23;;;11.82;;
52414;SDS011;38340;52.964;6.086;2023-09-08T07:12:34;14.23;;;11.52;;
52414;SDS011;38340;52.964;6.086;2023-09-08T07:15:00;14.90;;;12.05;;
52414;SDS011;38340;52.964;6.086;2023-09-08T07:17:26;13.82;;;11.98;;
52414;SDS011;38340;52.964;6.086;2023-09-08T07:19:52;15.45;;;11.40;;
52414;SDS011;38340;52.964;6.086;2023-09-08T07:22:18;14.55;;;11.68;;
52414;SDS011;38340;52.964;6.086;2023-09-08T07:24:44;15.00;;;11.23;;
52414;SDS011;38340;52.964;6.086;2023-09-08T07:27:10;14.75;;;11.48;;
52414;SDS011;38340;52.964;6.086;2023-09-08T07:29:39;12.63;;;10.48;;
52414;SDS011;38340;52.964;6.086;2023-09-08T07:32:05;13.90;;;10.57;;
52414;SDS011;38340;52.964;6.086;2023-09-08T07:34:31;13.85;;;9.30;;
52414;SDS011;38340;52.964;6.086;2023-09-08T07:36:56;12.13;;;8.82;;
52414;SDS011;38340;52.964;6.086;2023-09-08T07:39:22;13.02;;;9.35;;
52414;SDS011;38340;52.964;6.086;2023-09-08T07:41:48;13.07;;;9.55;;
52414;SDS011;38340;52.964;6.086;2023-09-08T07:44:14;12.73;;;8.80;;
52414;SDS011;38340;52.964;6.086;2023-09-08T07:46:40;14.38;;;10.05;;
52414;SDS011;38340;52.964;6.086;2023-09-08T07:49:06;13.48;;;11.27;;
52414;SDS011;38340;52.964;6.086;2023-09-08T07:51:31;20.17;;;10.85;;
52414;SDS011;38340;52.964;6.086;2023-09-08T07:53:57;15.13;;;10.77;;
52414;SDS011;38340;52.964;6.086;2023-09-08T07:56:23;12.23;;;10.25;;
52414;SDS011;38340;52.964;6.086;2023-09-08T07:58:48;12.75;;;10.60;;
52414;SDS011;38340;52.964;6.086;2023-09-08T08:01:14;12.88;;;10.60;;
52414;SDS011;38340;52.964;6.086;2023-09-08T08:03:40;13.35;;;10.90;;
52414;SDS011;38340;52.964;6.086;2023-09-08T08:06:06;11.15;;;9.57;;
52414;SDS011;38340;52.964;6.086;2023-09-08T08:08:33;14.52;;;9.68;;
52414;SDS011;38340;52.964;6.086;2023-09-08T08:11:08;12.88;;;8.52;;
52414;SDS011;38340;52.964;6.086;2023-09-08T08:13:40;13.23;;;8.15;;
52414;SDS011;38340;52.964;6.086;2023-09-08T08:16:06;15.15;;;9.30;;
52414;SDS011;38340;52.964;6.086;2023-09-08T08:18:32;14.10;;;8.98;;
52414;SDS011;38340;52.964;6.086;2023-09-08T08:20:58;11.98;;;8.02;;
52414;SDS011;38340;52.964;6.086;2023-09-08T08:23:25;11.70;;;8.30;;
52414;SDS011;38340;52.964;6.086;2023-09-08T08:25:51;11.18;;;8.75;;
52414;SDS011;38340;52.964;6.086;2023-09-08T08:28:17;14.45;;;8.77;;
52414;SDS011;38340;52.964;6.086;2023-09-08T08:30:43;10.85;;;9.10;;
52414;SDS011;38340;52.964;6.086;2023-09-08T08:33:08;10.50;;;8.40;;
52414;SDS011;38340;52.964;6.086;2023-09-08T08:35:34;12.25;;;8.70;;
52414;SDS011;38340;52.964;6.086;2023-09-08T08:38:00;11.13;;;8.23;;
52414;SDS011;38340;52.964;6.086;2023-09-08T08:40:26;11.95;;;8.70;;
52414;SDS011;38340;52.964;6.086;2023-09-08T08:42:57;12.07;;;8.60;;
52414;SDS011;38340;52.964;6.086;2023-09-08T08:45:23;12.93;;;8.93;;
52414;SDS011;38340;52.964;6.086;2023-09-08T08:47:50;11.43;;;8.75;;
52414;SDS011;38340;52.964;6.086;2023-09-08T08:50:16;10.52;;;8.75;;
52414;SDS011;38340;52.964;6.086;2023-09-08T08:52:42;12.77;;;9.05;;
52414;SDS011;38340;52.964;6.086;2023-09-08T08:55:08;11.68;;;8.00;;
52414;SDS011;38340;52.964;6.086;2023-09-08T08:57:38;10.63;;;8.25;;
52414;SDS011;38340;52.964;6.086;2023-09-08T09:00:08;11.25;;;9.20;;
52414;SDS011;38340;52.964;6.086;2023-09-08T09:02:40;11.23;;;8.30;;
52414;SDS011;38340;52.964;6.086;2023-09-08T09:05:15;9.38;;;7.95;;
52414;SDS011;38340;52.964;6.086;2023-09-08T09:07:42;9.75;;;8.15;;
52414;SDS011;38340;52.964;6.086;2023-09-08T09:10:08;14.35;;;9.02;;
52414;SDS011;38340;52.964;6.086;2023-09-08T09:12:38;11.52;;;8.52;;
52414;SDS011;38340;52.964;6.086;2023-09-08T09:15:04;9.48;;;7.80;;
52414;SDS011;38340;52.964;6.086;2023-09-08T09:17:32;10.75;;;7.88;;
52414;SDS011;38340;52.964;6.086;2023-09-08T09:20:13;9.48;;;8.48;;
52414;SDS011;38340;52.964;6.086;2023-09-08T09:22:46;15.63;;;8.40;;
52414;SDS011;38340;52.964;6.086;2023-09-08T09:25:25;10.30;;;8.13;;
52414;SDS011;38340;52.964;6.086;2023-09-08T09:27:52;11.98;;;7.88;;
52414;SDS011;38340;52.964;6.086;2023-09-08T09:30:25;10.00;;;8.13;;
52414;SDS011;38340;52.964;6.086;2023-09-08T09:32:59;9.82;;;7.82;;
52414;SDS011;38340;52.964;6.086;2023-09-08T09:40:37;10.05;;;8.30;;
52414;SDS011;38340;52.964;6.086;2023-09-08T09:43:04;10.98;;;8.23;;
52414;SDS011;38340;52.964;6.086;2023-09-08T09:45:30;12.85;;;8.60;;
52414;SDS011;38340;52.964;6.086;2023-09-08T09:47:58;9.57;;;8.43;;
52414;SDS011;38340;52.964;6.086;2023-09-08T09:50:34;9.80;;;7.70;;
52414;SDS011;38340;52.964;6.086;2023-09-08T09:53:07;10.27;;;8.38;;
52414;SDS011;38340;52.964;6.086;2023-09-08T09:55:45;12.10;;;8.18;;
52414;SDS011;38340;52.964;6.086;2023-09-08T09:58:11;11.98;;;8.55;;
52414;SDS011;38340;52.964;6.086;2023-09-08T10:00:37;12.43;;;8.15;;
52414;SDS011;38340;52.964;6.086;2023-09-08T10:03:04;11.57;;;8.35;;
52414;SDS011;38340;52.964;6.086;2023-09-08T10:05:30;11.73;;;8.07;;
52414;SDS011;38340;52.964;6.086;2023-09-08T10:07:56;8.48;;;7.03;;
52414;SDS011;38340;52.964;6.086;2023-09-08T10:10:23;8.30;;;7.50;;
52414;SDS011;38340;52.964;6.086;2023-09-08T10:12:54;9.68;;;6.57;;
52414;SDS011;38340;52.964;6.086;2023-09-08T10:15:21;8.73;;;7.00;;
52414;SDS011;38340;52.964;6.086;2023-09-08T10:17:55;9.15;;;7.13;;
52414;SDS011;38340;52.964;6.086;2023-09-08T10:20:25;9.65;;;7.40;;
52414;SDS011;38340;52.964;6.086;2023-09-08T10:22:53;9.65;;;7.57;;
52414;SDS011;38340;52.964;6.086;2023-09-08T10:25:25;8.07;;;7.28;;
52414;SDS011;38340;52.964;6.086;2023-09-08T10:27:54;8.70;;;7.10;;
52414;SDS011;38340;52.964;6.086;2023-09-08T10:30:21;10.30;;;7.68;;
52414;SDS011;38340;52.964;6.086;2023-09-08T10:32:47;8.70;;;7.13;;
52414;SDS011;38340;52.964;6.086;2023-09-08T10:35:15;8.45;;;7.22;;
52414;SDS011;38340;52.964;6.086;2023-09-08T10:37:44;8.50;;;7.18;;
52414;SDS011;38340;52.964;6.086;2023-09-08T10:40:24;10.13;;;7.15;;
52414;SDS011;38340;52.964;6.086;2023-09-08T10:43:08;10.82;;;7.75;;
52414;SDS011;38340;52.964;6.086;2023-09-08T10:45:34;8.23;;;7.22;;
52414;SDS011;38340;52.964;6.086;2023-09-08T10:48:00;7.70;;;6.93;;
52414;SDS011;38340;52.964;6.086;2023-09-08T10:50:30;9.77;;;6.32;;
52414;SDS011;38340;52.964;6.086;2023-09-08T10:53:04;9.10;;;7.03;;
52414;SDS011;38340;52.964;6.086;2023-09-08T10:58:20;7.82;;;6.72;;
52414;SDS011;38340;52.964;6.086;2023-09-08T11:00:54;9.15;;;6.90;;
52414;SDS011;38340;52.964;6.086;2023-09-08T11:06:07;7.70;;;6.90;;
52414;SDS011;38340;52.964;6.086;2023-09-08T11:08:34;8.68;;;6.72;;
52414;SDS011;38340;52.964;6.086;2023-09-08T11:11:02;9.13;;;6.95;;
52414;SDS011;38340;52.964;6.086;2023-09-08T11:13:28;7.97;;;7.18;;
52414;SDS011;38340;52.964;6.086;2023-09-08T11:15:54;8.13;;;6.80;;
52414;SDS011;38340;52.964;6.086;2023-09-08T11:18:27;9.40;;;7.25;;
52414;SDS011;38340;52.964;6.086;2023-09-08T11:20:53;11.48;;;6.80;;
52414;SDS011;38340;52.964;6.086;2023-09-08T11:23:20;10.80;;;7.32;;
52414;SDS011;38340;52.964;6.086;2023-09-08T11:25:46;7.00;;;6.22;;
52414;SDS011;38340;52.964;6.086;2023-09-08T11:28:13;7.35;;;6.65;;
52414;SDS011;38340;52.964;6.086;2023-09-08T11:30:39;9.00;;;7.18;;
52414;SDS011;38340;52.964;6.086;2023-09-08T11:33:13;9.52;;;7.40;;
52414;SDS011;38340;52.964;6.086;2023-09-08T11:35:46;9.07;;;7.68;;
52414;SDS011;38340;52.964;6.086;2023-09-08T11:38:12;8.00;;;7.20;;
52414;SDS011;38340;52.964;6.086;2023-09-08T11:40:38;10.73;;;6.90;;
52414;SDS011;38340;52.964;6.086;2023-09-08T11:43:05;7.32;;;6.55;;
52414;SDS011;38340;52.964;6.086;2023-09-08T11:45:33;8.32;;;7.45;;
52414;SDS011;38340;52.964;6.086;2023-09-08T11:48:00;8.40;;;7.18;;
52414;SDS011;38340;52.964;6.086;2023-09-08T11:50:26;7.95;;;7.18;;
52414;SDS011;38340;52.964;6.086;2023-09-08T11:52:53;7.93;;;7.13;;
52414;SDS011;38340;52.964;6.086;2023-09-08T11:55:20;10.95;;;7.78;;
52414;SDS011;38340;52.964;6.086;2023-09-08T11:57:50;10.43;;;7.28;;
52414;SDS011;38340;52.964;6.086;2023-09-08T12:00:20;8.77;;;6.97;;
52414;SDS011;38340;52.964;6.086;2023-09-08T12:02:47;9.65;;;6.72;;
52414;SDS011;38340;52.964;6.086;2023-09-08T12:05:20;7.80;;;7.00;;
52414;SDS011;38340;52.964;6.086;2023-09-08T12:07:53;8.40;;;7.15;;
52414;SDS011;38340;52.964;6.086;2023-09-08T12:10:21;9.52;;;7.32;;
52414;SDS011;38340;52.964;6.086;2023-09-08T12:12:51;10.70;;;7.30;;
52414;SDS011;38340;52.964;6.086;2023-09-08T12:15:39;8.60;;;7.60;;
52414;SDS011;38340;52.964;6.086;2023-09-08T12:18:06;7.30;;;6.60;;
52414;SDS011;38340;52.964;6.086;2023-09-08T12:20:34;8.68;;;7.25;;
52414;SDS011;38340;52.964;6.086;2023-09-08T12:23:02;10.48;;;7.07;;
52414;SDS011;38340;52.964;6.086;2023-09-08T12:25:29;7.53;;;6.82;;
52414;SDS011;38340;52.964;6.086;2023-09-08T12:27:59;7.35;;;6.45;;
52414;SDS011;38340;52.964;6.086;2023-09-08T12:30:25;8.77;;;7.88;;
52414;SDS011;38340;52.964;6.086;2023-09-08T12:32:58;9.40;;;7.20;;
52414;SDS011;38340;52.964;6.086;2023-09-08T12:35:25;7.80;;;7.03;;
52414;SDS011;38340;52.964;6.086;2023-09-08T12:37:58;8.57;;;6.82;;
52414;SDS011;38340;52.964;6.086;2023-09-08T12:40:29;9.23;;;6.75;;
52414;SDS011;38340;52.964;6.086;2023-09-08T12:42:55;10.25;;;7.03;;
52414;SDS011;38340;52.964;6.086;2023-09-08T12:45:23;7.28;;;6.57;;
52414;SDS011;38340;52.964;6.086;2023-09-08T12:47:50;7.60;;;6.45;;
52414;SDS011;38340;52.964;6.086;2023-09-08T12:50:16;7.95;;;7.15;;
52414;SDS011;38340;52.964;6.086;2023-09-08T12:52:42;8.10;;;7.30;;
52414;SDS011;38340;52.964;6.086;2023-09-08T12:55:08;8.93;;;7.50;;
52414;SDS011;38340;52.964;6.086;2023-09-08T12:57:35;8.23;;;7.43;;
52414;SDS011;38340;52.964;6.086;2023-09-08T13:00:01;7.90;;;6.47;;
52414;SDS011;38340;52.964;6.086;2023-09-08T13:02:28;9.25;;;7.50;;
52414;SDS011;38340;52.964;6.086;2023-09-08T13:04:54;8.55;;;6.65;;
52414;SDS011;38340;52.964;6.086;2023-09-08T13:07:20;7.53;;;6.78;;
52414;SDS011;38340;52.964;6.086;2023-09-08T13:09:46;8.48;;;7.15;;
52414;SDS011;38340;52.964;6.086;2023-09-08T13:12:12;7.38;;;6.68;;
52414;SDS011;38340;52.964;6.086;2023-09-08T13:14:39;11.32;;;7.32;;
52414;SDS011;38340;52.964;6.086;2023-09-08T13:17:05;9.43;;;6.97;;
52414;SDS011;38340;52.964;6.086;2023-09-08T13:19:33;7.85;;;7.03;;
52414;SDS011;38340;52.964;6.086;2023-09-08T13:21:59;10.25;;;7.88;;
52414;SDS011;38340;52.964;6.086;2023-09-08T13:24:25;8.35;;;7.45;;
52414;SDS011;38340;52.964;6.086;2023-09-08T13:26:50;7.65;;;6.88;;
52414;SDS011;38340;52.964;6.086;2023-09-08T13:29:16;7.60;;;6.90;;
52414;SDS011;38340;52.964;6.086;2023-09-08T13:31:43;7.80;;;7.00;;
52414;SDS011;38340;52.964;6.086;2023-09-08T13:34:09;10.95;;;6.75;;
52414;SDS011;38340;52.964;6.086;2023-09-08T13:36:34;8.57;;;6.28;;
52414;SDS011;38340;52.964;6.086;2023-09-08T13:39:00;7.60;;;6.82;;
52414;SDS011;38340;52.964;6.086;2023-09-08T13:44:18;7.97;;;6.72;;
52414;SDS011;38340;52.964;6.086;2023-09-08T13:46:48;7.13;;;6.43;;
52414;SDS011;38340;52.964;6.086;2023-09-08T13:49:15;7.15;;;6.47;;
52414;SDS011;38340;52.964;6.086;2023-09-08T13:51:42;9.77;;;6.75;;
52414;SDS011;38340;52.964;6.086;2023-09-08T13:54:08;7.05;;;6.30;;
52414;SDS011;38340;52.964;6.086;2023-09-08T13:56:34;6.53;;;5.72;;
52414;SDS011;38340;52.964;6.086;2023-09-08T13:59:00;9.48;;;6.70;;
52414;SDS011;38340;52.964;6.086;2023-09-08T14:01:26;9.52;;;7.18;;
52414;SDS011;38340;52.964;6.086;2023-09-08T14:03:54;7.95;;;6.22;;
52414;SDS011;38340;52.964;6.086;2023-09-08T14:06:21;10.40;;;6.60;;
52414;SDS011;38340;52.964;6.086;2023-09-08T14:08:48;13.50;;;6.60;;
52414;SDS011;38340;52.964;6.086;2023-09-08T14:11:13;9.85;;;6.32;;
52414;SDS011;38340;52.964;6.086;2023-09-08T14:13:39;8.52;;;6.53;;
52414;SDS011;38340;52.964;6.086;2023-09-08T14:16:05;8.73;;;6.70;;
52414;SDS011;38340;52.964;6.086;2023-09-08T14:18:31;8.02;;;7.22;;
52414;SDS011;38340;52.964;6.086;2023-09-08T14:20:56;7.28;;;6.57;;
52414;SDS011;38340;52.964;6.086;2023-09-08T14:23:23;8.95;;;6.63;;
52414;SDS011;38340;52.964;6.086;2023-09-08T14:25:48;8.13;;;6.40;;
52414;SDS011;38340;52.964;6.086;2023-09-08T14:28:14;8.85;;;6.35;;
52414;SDS011;38340;52.964;6.086;2023-09-08T14:30:40;11.90;;;6.35;;
52414;SDS011;38340;52.964;6.086;2023-09-08T14:33:06;9.52;;;6.25;;
52414;SDS011;38340;52.964;6.086;2023-09-08T14:35:32;6.70;;;6.05;;
52414;SDS011;38340;52.964;6.086;2023-09-08T14:37:58;7.72;;;6.40;;
52414;SDS011;38340;52.964;6.086;2023-09-08T14:40:24;6.60;;;6.00;;
52414;SDS011;38340;52.964;6.086;2023-09-08T14:42:49;7.57;;;6.55;;
52414;SDS011;38340;52.964;6.086;2023-09-08T14:45:15;7.28;;;5.45;;